createdAt,value
2022-12-09T00:01:16.791Z,17.23
2022-12-09T00:03:45.782Z,15.60
2022-12-09T00:06:19.900Z,14.83
2022-12-09T00:08:49.164Z,15.20
2022-12-09T00:11:18.279Z,14.77
2022-12-09T00:13:49.612Z,13.43
2022-12-09T00:16:18.583Z,15.63
2022-12-09T00:18:47.527Z,16.23
2022-12-09T00:21:20.004Z,15.70
2022-12-09T00:23:49.108Z,15.00
2022-12-09T00:26:18.785Z,16.17
2022-12-09T00:28:47.940Z,16.67
2022-12-09T00:31:18.305Z,14.73
2022-12-09T00:33:47.842Z,15.33
2022-12-09T00:36:19.616Z,16.73
2022-12-09T00:38:49.195Z,16.17
2022-12-09T00:41:18.127Z,16.83
2022-12-09T00:43:49.033Z,17.23
2022-12-09T00:46:18.398Z,16.37
2022-12-09T00:48:48.599Z,17.23
2022-12-09T00:51:20.506Z,16.90
2022-12-09T00:53:53.485Z,16.23
2022-12-09T00:56:22.825Z,16.40
2022-12-09T00:58:51.540Z,15.27
2022-12-09T01:01:20.233Z,15.33
2022-12-09T01:03:48.960Z,15.80
2022-12-09T01:06:22.119Z,15.87
2022-12-09T01:08:51.014Z,15.80
2022-12-09T01:11:21.610Z,16.07
2022-12-09T01:13:51.171Z,15.97
2022-12-09T01:16:21.331Z,14.23
2022-12-09T01:18:50.224Z,15.23
2022-12-09T01:21:20.301Z,15.10
2022-12-09T01:23:48.727Z,14.73
2022-12-09T01:26:17.402Z,13.20
2022-12-09T01:28:46.539Z,13.37
2022-12-09T01:31:19.440Z,15.23
2022-12-09T01:33:48.213Z,15.73
2022-12-09T01:36:19.988Z,14.03
2022-12-09T01:38:49.334Z,14.67
2022-12-09T01:41:19.299Z,14.43
2022-12-09T01:44:02.758Z,13.93
2022-12-09T01:46:31.297Z,14.47
2022-12-09T01:48:59.844Z,13.73
2022-12-09T01:51:30.557Z,15.50
2022-12-09T01:54:00.154Z,15.50
2022-12-09T01:56:31.709Z,13.57
2022-12-09T01:59:05.275Z,14.47
2022-12-09T02:01:36.085Z,15.60
2022-12-09T02:04:05.222Z,14.00
2022-12-09T02:06:37.085Z,14.27
2022-12-09T02:09:08.099Z,13.77
2022-12-09T02:11:57.230Z,15.63
2022-12-09T02:14:29.573Z,15.30
2022-12-09T02:17:17.058Z,16.87
2022-12-09T02:20:01.481Z,14.47
2022-12-09T02:22:39.595Z,14.33
2022-12-09T02:25:22.125Z,14.87
2022-12-09T02:28:00.393Z,14.60
2022-12-09T02:30:37.708Z,14.40
2022-12-09T02:33:22.164Z,14.43
2022-12-09T02:36:10.426Z,14.60
2022-12-09T02:38:51.772Z,13.60
2022-12-09T02:48:38.043Z,14.60
2022-12-09T02:51:37.929Z,14.20
2022-12-09T03:10:08.274Z,14.17
2022-12-09T03:34:12.736Z,13.13
2022-12-09T03:41:36.188Z,11.10
2022-12-09T03:49:03.081Z,11.03
2022-12-09T04:29:20.602Z,13.67
2022-12-09T04:31:52.509Z,13.30
2022-12-09T04:34:30.909Z,12.77
2022-12-09T05:35:12.672Z,33.43
2022-12-09T05:37:45.364Z,35.40
2022-12-09T05:40:34.258Z,57.70
2022-12-09T05:43:03.426Z,53.77
2022-12-09T05:45:32.360Z,35.67
2022-12-09T05:48:01.424Z,30.47
2022-12-09T05:50:31.887Z,23.90
2022-12-09T05:53:00.436Z,41.10
2022-12-09T05:55:29.105Z,36.50
2022-12-09T05:57:58.015Z,41.23
2022-12-09T06:00:26.826Z,30.17
2022-12-09T06:02:56.790Z,30.93
2022-12-09T06:05:25.666Z,38.67
2022-12-09T06:07:55.772Z,41.30
2022-12-09T06:10:24.807Z,33.97
2022-12-09T06:12:55.542Z,34.60
2022-12-09T06:15:31.230Z,34.53
2022-12-09T06:18:02.378Z,29.03
2022-12-09T06:20:31.492Z,29.30
2022-12-09T06:23:01.924Z,21.37
2022-12-09T06:25:30.977Z,16.67
2022-12-09T06:27:59.700Z,24.57
2022-12-09T06:30:29.662Z,16.27
2022-12-09T06:32:58.496Z,15.03
2022-12-09T06:35:27.905Z,14.43
2022-12-09T06:37:56.955Z,15.57
2022-12-09T06:40:27.180Z,15.60
2022-12-09T06:42:56.007Z,14.43
2022-12-09T06:45:24.769Z,14.63
2022-12-09T06:47:53.675Z,12.37
2022-12-09T06:50:22.384Z,16.23
2022-12-09T06:52:51.364Z,14.63
2022-12-09T06:55:19.858Z,17.87
2022-12-09T06:57:49.842Z,17.37
2022-12-09T07:00:19.011Z,17.53
2022-12-09T07:02:47.767Z,18.80
2022-12-09T07:05:17.505Z,18.27
2022-12-09T07:07:50.802Z,18.37
2022-12-09T07:10:20.723Z,15.53
2022-12-09T07:12:50.719Z,16.53
2022-12-09T07:15:19.443Z,16.97
2022-12-09T07:17:48.320Z,17.27
2022-12-09T07:20:17.905Z,18.40
2022-12-09T07:22:46.600Z,16.50
2022-12-09T07:25:15.343Z,15.67
2022-12-09T07:27:44.225Z,16.03
2022-12-09T07:30:14.920Z,16.33
2022-12-09T07:32:43.759Z,16.90
2022-12-09T07:35:12.530Z,16.43
2022-12-09T07:37:41.366Z,15.80
2022-12-09T07:40:10.524Z,16.07
2022-12-09T07:42:39.208Z,15.53
2022-12-09T07:45:09.135Z,16.03
2022-12-09T07:47:39.461Z,20.63
2022-12-09T07:50:09.784Z,22.53
2022-12-09T07:52:38.447Z,21.00
2022-12-09T07:55:09.316Z,19.40
2022-12-09T07:57:38.815Z,21.70
2022-12-09T08:00:08.869Z,19.43
2022-12-09T08:02:45.016Z,23.63
2022-12-09T08:05:14.682Z,33.73
2022-12-09T08:07:46.724Z,48.83
2022-12-09T08:10:16.390Z,45.30
2022-12-09T08:12:46.763Z,53.77
2022-12-09T08:15:17.075Z,48.70
2022-12-09T08:17:47.262Z,55.47
2022-12-09T08:20:16.747Z,47.23
2022-12-09T08:22:46.122Z,48.27
2022-12-09T08:25:15.671Z,46.63
2022-12-09T08:27:45.022Z,41.97
2022-12-09T08:30:17.242Z,44.77
2022-12-09T08:32:47.749Z,40.00
2022-12-09T08:35:16.875Z,37.53
2022-12-09T08:37:47.205Z,50.37
2022-12-09T08:40:16.703Z,41.30
2022-12-09T08:42:45.299Z,22.93
2022-12-09T08:45:13.972Z,40.07
2022-12-09T08:47:43.535Z,37.97
2022-12-09T08:50:14.493Z,33.07
2022-12-09T08:52:43.844Z,47.40
2022-12-09T08:55:12.756Z,41.70
2022-12-09T08:57:41.797Z,42.73
2022-12-09T09:00:12.111Z,28.93
2022-12-09T09:02:41.362Z,36.63
2022-12-09T09:05:10.652Z,31.63
2022-12-09T09:07:41.032Z,29.47
2022-12-09T09:10:11.752Z,25.60
2022-12-09T09:12:43.546Z,25.63
2022-12-09T09:15:13.291Z,22.53
2022-12-09T09:17:48.184Z,33.97
2022-12-09T09:20:20.796Z,26.93
2022-12-09T09:22:51.052Z,22.90
2022-12-09T09:25:19.884Z,25.20
2022-12-09T09:27:48.524Z,21.03
2022-12-09T09:30:17.785Z,27.73
2022-12-09T09:32:46.486Z,24.87
2022-12-09T09:35:15.767Z,18.70
2022-12-09T09:37:44.623Z,21.93
2022-12-09T09:40:15.165Z,17.67
2022-12-09T09:42:49.189Z,17.57
2022-12-09T09:45:21.310Z,19.13
2022-12-09T09:47:52.992Z,20.83
2022-12-09T09:50:30.806Z,20.07
2022-12-09T09:53:03.192Z,20.10
2022-12-09T09:55:43.286Z,20.40
2022-12-09T09:58:19.040Z,20.67
2022-12-09T10:01:05.316Z,21.50
2022-12-09T10:03:44.753Z,19.70
2022-12-09T10:06:24.050Z,17.87
2022-12-09T10:08:59.507Z,16.80
2022-12-09T10:11:33.230Z,17.40
2022-12-09T10:14:10.201Z,17.03
2022-12-09T10:16:45.547Z,17.43
2022-12-09T10:19:20.802Z,15.60
2022-12-09T10:21:52.141Z,17.03
2022-12-09T10:24:26.844Z,18.10
2022-12-09T10:27:02.915Z,17.30
2022-12-09T10:29:56.761Z,15.80
2022-12-09T10:32:27.968Z,15.33
2022-12-09T10:34:57.172Z,16.07
2022-12-09T10:37:32.214Z,14.50
2022-12-09T10:40:20.435Z,15.70
2022-12-09T10:43:10.215Z,14.83
2022-12-09T10:46:16.874Z,14.90
2022-12-09T10:48:37.633Z,14.33
2022-12-09T10:51:11.556Z,13.87
2022-12-09T10:53:48.731Z,13.80
2022-12-09T10:56:24.375Z,13.97
2022-12-09T10:59:11.451Z,16.30
2022-12-09T11:01:50.883Z,15.70
2022-12-09T11:04:25.227Z,14.33
2022-12-09T11:06:59.430Z,13.87
2022-12-09T11:09:31.249Z,13.53
2022-12-09T11:12:01.368Z,15.10
2022-12-09T11:14:41.555Z,14.03
2022-12-09T11:17:16.728Z,14.70
2022-12-09T11:19:48.964Z,17.00
2022-12-09T11:22:32.682Z,16.37
2022-12-09T11:25:20.044Z,16.90
2022-12-09T11:27:52.270Z,16.00
2022-12-09T11:30:25.512Z,14.20
2022-12-09T11:33:02.391Z,13.87
2022-12-09T11:35:38.212Z,13.40
2022-12-09T11:38:19.033Z,14.47
2022-12-09T11:41:00.834Z,14.53
2022-12-09T11:43:34.175Z,15.77
2022-12-09T11:46:16.231Z,14.33
2022-12-09T11:48:50.942Z,14.13
2022-12-09T11:51:23.668Z,12.77
2022-12-09T11:54:01.663Z,13.70
2022-12-09T11:56:33.635Z,14.20
2022-12-09T11:59:05.551Z,14.20
2022-12-09T12:01:46.160Z,14.13
2022-12-09T12:04:17.310Z,14.37
2022-12-09T12:06:49.460Z,13.77
2022-12-09T12:09:23.578Z,13.90
2022-12-09T12:12:02.088Z,13.37
2022-12-09T12:14:31.604Z,14.07
2022-12-09T12:17:10.352Z,14.50
2022-12-09T12:19:40.229Z,15.97
2022-12-09T12:22:40.771Z,15.97
2022-12-09T12:25:32.569Z,13.50
2022-12-09T12:28:32.809Z,14.17
2022-12-09T12:31:16.243Z,13.17
2022-12-09T12:34:23.671Z,14.00
2022-12-09T12:36:53.705Z,13.00
2022-12-09T12:39:41.435Z,13.47
2022-12-09T12:42:23.779Z,14.07
2022-12-09T12:45:20.092Z,13.07
2022-12-09T12:47:56.704Z,17.03
2022-12-09T12:50:56.074Z,14.87
2022-12-09T12:53:36.036Z,13.50
2022-12-09T12:56:08.182Z,12.93
2022-12-09T12:58:51.237Z,14.13
2022-12-09T13:01:30.168Z,13.47
2022-12-09T13:04:08.680Z,14.63
2022-12-09T13:06:44.184Z,14.70
2022-12-09T13:09:17.529Z,13.27
2022-12-09T13:11:57.173Z,12.30
2022-12-09T13:14:34.116Z,14.20
2022-12-09T13:17:06.143Z,13.00
2022-12-09T13:19:41.755Z,13.97
2022-12-09T13:22:19.379Z,12.57
2022-12-09T13:24:59.960Z,12.67
2022-12-09T13:27:38.387Z,12.13
2022-12-09T13:30:13.293Z,13.27
2022-12-09T13:33:13.404Z,11.57
2022-12-09T13:35:45.430Z,11.90
2022-12-09T13:38:33.422Z,11.07
2022-12-09T13:41:01.854Z,12.90
2022-12-09T13:43:33.665Z,12.47
2022-12-09T13:46:03.017Z,12.93
2022-12-09T13:48:49.021Z,12.33
2022-12-09T13:51:18.970Z,13.63
2022-12-09T13:53:53.571Z,12.93
2022-12-09T13:56:30.613Z,13.43
2022-12-09T13:59:14.349Z,10.90
2022-12-09T14:01:48.123Z,12.97
2022-12-09T14:04:20.227Z,12.40
2022-12-09T14:07:10.077Z,13.10
2022-12-09T14:09:48.716Z,12.00
2022-12-09T14:12:52.234Z,11.80
2022-12-09T14:15:38.532Z,9.73
2022-12-09T14:18:28.323Z,10.90
2022-12-09T14:21:22.921Z,12.47
2022-12-09T14:24:28.941Z,12.83
2022-12-09T14:27:16.617Z,11.93
2022-12-09T14:29:47.517Z,12.40
2022-12-09T14:32:27.656Z,13.30
2022-12-09T14:35:19.413Z,13.27
2022-12-09T14:38:00.450Z,14.63
2022-12-09T14:40:51.851Z,16.60
2022-12-09T14:43:39.291Z,17.17
2022-12-09T14:46:19.923Z,17.60
2022-12-09T14:48:54.262Z,17.27
2022-12-09T14:51:25.991Z,17.03
2022-12-09T14:53:58.291Z,16.83
2022-12-09T14:56:28.860Z,17.90
2022-12-09T14:59:03.771Z,18.20
2022-12-09T15:01:48.443Z,18.40
2022-12-09T15:04:29.882Z,16.97
2022-12-09T15:07:12.951Z,17.80
2022-12-09T15:09:53.727Z,17.80
2022-12-09T15:12:26.163Z,19.40
2022-12-09T15:14:59.895Z,18.27
2022-12-09T15:17:31.484Z,18.70
2022-12-09T15:20:12.400Z,17.53
2022-12-09T15:22:40.957Z,16.60
2022-12-09T15:25:18.220Z,17.97
2022-12-09T15:27:56.915Z,15.43
2022-12-09T15:30:34.408Z,15.80
2022-12-09T15:33:03.166Z,15.33
2022-12-09T15:35:33.935Z,17.53
2022-12-09T15:38:07.351Z,18.30
2022-12-09T15:40:37.505Z,17.93
2022-12-09T15:43:11.610Z,17.10
2022-12-09T15:45:44.851Z,16.83
2022-12-09T15:48:19.310Z,17.20
2022-12-09T15:50:53.087Z,18.10
2022-12-09T15:53:25.915Z,19.03
2022-12-09T15:55:57.842Z,17.70
2022-12-09T15:58:30.192Z,17.73
2022-12-09T16:01:00.186Z,16.53
2022-12-09T16:03:31.437Z,18.13
2022-12-09T16:06:03.409Z,18.00
2022-12-09T16:08:34.688Z,15.67
2022-12-09T16:11:03.288Z,17.03
2022-12-09T16:13:31.868Z,16.57
2022-12-09T16:16:04.357Z,17.20
2022-12-09T16:18:35.468Z,16.63
2022-12-09T16:21:22.366Z,16.73
2022-12-09T16:23:53.330Z,16.70
2022-12-09T16:26:25.984Z,15.83
2022-12-09T16:28:57.625Z,16.83
2022-12-09T16:31:27.834Z,17.07
2022-12-09T16:33:57.133Z,16.47
2022-12-09T16:36:28.066Z,16.73
2022-12-09T16:39:33.374Z,17.53
2022-12-09T16:42:03.198Z,17.07
2022-12-09T16:44:34.722Z,18.70
2022-12-09T16:47:16.513Z,18.73
2022-12-09T16:49:47.632Z,18.53
2022-12-09T16:52:18.363Z,19.47
2022-12-09T16:54:48.253Z,19.10
2022-12-09T16:57:18.658Z,19.03
2022-12-09T16:59:47.890Z,21.77
2022-12-09T17:02:30.451Z,18.67
2022-12-09T17:05:00.689Z,18.97
2022-12-09T17:07:29.204Z,20.80
2022-12-09T17:09:57.681Z,22.70
2022-12-09T17:12:26.258Z,23.57
2022-12-09T17:14:54.731Z,25.30
2022-12-09T17:17:24.596Z,22.53
2022-12-09T17:19:53.133Z,25.13
2022-12-09T17:22:21.654Z,23.67
2022-12-09T17:24:50.475Z,27.73
2022-12-09T17:27:18.977Z,26.10
2022-12-09T17:29:47.580Z,26.87
2022-12-09T17:32:16.041Z,31.90
2022-12-09T17:34:45.814Z,25.20
2022-12-09T17:37:14.338Z,23.30
2022-12-09T17:39:42.815Z,21.80
2022-12-09T17:42:11.654Z,23.03
2022-12-09T17:44:40.060Z,25.47
2022-12-09T17:47:08.562Z,21.80
2022-12-09T17:49:36.983Z,21.60
2022-12-09T17:52:06.946Z,22.90
2022-12-09T17:54:35.383Z,46.93
2022-12-09T17:57:03.820Z,36.63
2022-12-09T17:59:32.378Z,25.60
2022-12-09T18:02:03.497Z,24.30
2022-12-09T18:04:32.220Z,23.50
2022-12-09T18:07:00.671Z,26.00
2022-12-09T18:09:31.386Z,29.43
2022-12-09T18:11:59.875Z,27.67
2022-12-09T18:14:29.625Z,26.77
2022-12-09T18:16:58.086Z,25.07
2022-12-09T18:19:27.047Z,22.43
2022-12-09T18:21:56.078Z,22.63
2022-12-09T18:24:24.854Z,22.10
2022-12-09T18:26:54.716Z,23.90
2022-12-09T18:29:23.982Z,24.57
2022-12-09T18:31:55.737Z,26.87
2022-12-09T18:34:24.661Z,25.03
2022-12-09T18:36:53.383Z,24.93
2022-12-09T18:39:22.902Z,26.03
2022-12-09T18:41:51.432Z,27.20
2022-12-09T18:44:21.366Z,25.53
2022-12-09T18:46:51.381Z,27.07
2022-12-09T18:49:22.475Z,28.70
2022-12-09T18:51:52.458Z,26.83
2022-12-09T18:54:23.741Z,27.27
2022-12-09T18:56:52.510Z,26.20
2022-12-09T18:59:24.991Z,28.87
2022-12-09T19:01:54.117Z,38.07
2022-12-09T19:04:26.950Z,48.00
2022-12-09T19:06:57.207Z,35.53
2022-12-09T19:09:28.453Z,29.93
2022-12-09T19:11:56.977Z,25.70
2022-12-09T19:14:26.791Z,24.07
2022-12-09T19:16:55.492Z,25.03
2022-12-09T19:19:25.929Z,26.30
2022-12-09T19:21:55.131Z,30.20
2022-12-09T19:24:24.762Z,26.97
2022-12-09T19:26:54.524Z,26.27
2022-12-09T19:29:24.540Z,26.87
2022-12-09T19:31:54.923Z,25.27
2022-12-09T19:34:25.534Z,27.40
2022-12-09T19:36:55.659Z,27.10
2022-12-09T19:39:26.805Z,31.57
2022-12-09T19:41:55.260Z,30.50
2022-12-09T19:44:52.700Z,31.57
2022-12-09T19:47:14.179Z,28.87
2022-12-09T19:49:44.297Z,26.20
2022-12-09T19:52:12.766Z,24.07
2022-12-09T19:54:41.413Z,22.47
2022-12-09T19:57:10.556Z,22.90
2022-12-09T19:59:39.042Z,23.50
2022-12-09T20:02:11.838Z,23.03
2022-12-09T20:04:50.446Z,23.37
2022-12-09T20:07:19.440Z,25.33
2022-12-09T20:09:48.146Z,24.97
2022-12-09T20:12:16.626Z,24.47
2022-12-09T20:14:45.149Z,21.30
2022-12-09T20:17:13.607Z,23.70
2022-12-09T20:19:43.398Z,22.80
2022-12-09T20:22:11.859Z,23.37
2022-12-09T20:24:40.233Z,24.17
2022-12-09T20:27:08.667Z,24.57
2022-12-09T20:29:38.368Z,30.80
2022-12-09T20:32:08.368Z,26.53
2022-12-09T20:34:37.216Z,25.23
2022-12-09T20:37:07.226Z,24.33
2022-12-09T20:39:35.751Z,23.60
2022-12-09T20:42:04.257Z,26.20
2022-12-09T20:44:33.346Z,26.60
2022-12-09T20:47:01.762Z,23.97
2022-12-09T20:49:30.621Z,22.17
2022-12-09T20:51:59.271Z,24.57
2022-12-09T20:54:29.077Z,21.13
2022-12-09T20:56:57.733Z,22.50
2022-12-09T20:59:26.290Z,21.07
2022-12-09T21:01:55.860Z,21.87
2022-12-09T21:04:24.591Z,22.13
2022-12-09T21:06:53.363Z,19.03
2022-12-09T21:09:26.930Z,19.10
2022-12-09T21:11:57.115Z,18.10
2022-12-09T21:14:32.432Z,21.57
2022-12-09T21:17:02.028Z,19.73
2022-12-09T21:19:32.428Z,19.67
2022-12-09T21:22:00.881Z,19.43
2022-12-09T21:24:29.377Z,19.23
2022-12-09T21:26:59.447Z,19.10
2022-12-09T21:29:31.991Z,22.93
2022-12-09T21:32:01.795Z,19.80
2022-12-09T21:34:30.754Z,20.53
2022-12-09T21:36:59.269Z,23.53
2022-12-09T21:39:29.136Z,22.33
2022-12-09T21:41:58.929Z,21.40
2022-12-09T21:44:28.248Z,20.27
2022-12-09T21:46:56.655Z,27.20
2022-12-09T21:49:25.317Z,22.33
2022-12-09T21:51:53.760Z,20.20
2022-12-09T21:54:22.244Z,22.77
2022-12-09T21:56:50.706Z,27.83
2022-12-09T21:59:20.531Z,19.20
2022-12-09T22:01:49.151Z,20.33
2022-12-09T22:04:17.881Z,23.03
2022-12-09T22:06:47.353Z,23.47
2022-12-09T22:09:16.894Z,24.67
2022-12-09T22:11:45.302Z,24.50
2022-12-09T22:14:13.850Z,27.43
2022-12-09T22:16:45.598Z,23.57
2022-12-09T22:19:16.291Z,21.70
2022-12-09T22:21:44.718Z,20.57
2022-12-09T22:24:14.296Z,19.00
2022-12-09T22:26:44.165Z,19.17
2022-12-09T22:29:14.672Z,20.43
2022-12-09T22:31:45.410Z,21.97
2022-12-09T22:34:17.378Z,19.17
2022-12-09T22:36:45.967Z,19.70
2022-12-09T22:39:15.688Z,20.13
2022-12-09T22:41:45.904Z,21.30
2022-12-09T22:44:16.407Z,21.17
2022-12-09T22:46:46.538Z,20.60
2022-12-09T22:49:16.790Z,18.97
2022-12-09T22:51:45.949Z,22.17
2022-12-09T22:54:15.047Z,20.77
2022-12-09T22:56:45.198Z,22.07
2022-12-09T22:59:14.733Z,21.60
2022-12-09T23:01:47.538Z,21.57
2022-12-09T23:04:18.515Z,20.07
2022-12-09T23:06:47.006Z,22.13
2022-12-09T23:09:18.543Z,23.53
2022-12-09T23:11:47.440Z,22.80
2022-12-09T23:14:16.596Z,25.40
2022-12-09T23:16:46.888Z,25.63
2022-12-09T23:19:16.606Z,21.70
2022-12-09T23:21:45.059Z,23.93
2022-12-09T23:24:18.471Z,24.83
2022-12-09T23:26:51.282Z,21.60
2022-12-09T23:29:19.730Z,22.67
2022-12-09T23:31:49.542Z,22.90
2022-12-09T23:34:18.103Z,21.07
2022-12-09T23:36:47.223Z,20.57
2022-12-09T23:39:18.147Z,21.57
2022-12-09T23:41:47.528Z,20.93
2022-12-09T23:44:18.543Z,20.20
2022-12-09T23:46:47.082Z,20.73
2022-12-09T23:49:18.007Z,20.73
2022-12-09T23:51:46.539Z,21.60
2022-12-09T23:54:17.066Z,19.57
2022-12-09T23:56:49.594Z,20.77
2022-12-09T23:59:21.103Z,21.20
